Погода Хименесна неделю

Чиуауа, Мексика

16 - 22 июня
  • 16июня
    Сегодня
    +29°
    +44°
    Ясно и безоблачно
    ВремяПогодаТемператураВлажностьДавлениеВетер, м/сВероятность осадков
    00:00Ясно и безоблачно+34°C19 %665 мм4.5 м/с2 %
    03:00Ясно и безоблачно+30°C23 %665 мм3.1 м/с2 %
    06:00Ясно и безоблачно+30°C27 %665 мм5.8 м/с2 %
    09:00Ясно и безоблачно+34°C23 %667 мм5.8 м/с2 %
    12:00Ясно и безоблачно+40°C16 %667 мм4.5 м/с2 %
    15:00Ясно и безоблачно+42°C12 %665 мм2.7 м/с2 %
    18:00Ясно и безоблачно+43°C10 %664 мм0.8 м/с2 %
    21:00Практически безоблачно+37°C18 %664 мм7.7 м/с2 %
  • 17июня
    Понедельник
    +27°
    +44°
    Ясно и безоблачно
    ВремяПогодаТемператураВлажностьДавлениеВетер, м/сВероятность осадков
    00:00Практически безоблачно+34°C20 %664 мм4.1 м/с2 %
    03:00Ясно и безоблачно+32°C22 %663 мм7.4 м/с2 %
    06:00Ясно и безоблачно+30°C25 %664 мм6.0 м/с2 %
    09:00Ясно и безоблачно+34°C23 %666 мм5.1 м/с2 %
    12:00Ясно и безоблачно+41°C10 %666 мм1.2 м/с2 %
    15:00Ясно и безоблачно+42°C7 %664 мм3.1 м/с2 %
    18:00Ясно и безоблачно+43°C7 %662 мм0.1 м/с2 %
    21:00Ясно и безоблачно+40°C8 %662 мм5.0 м/с2 %
  • 18июня
    Вторник
    +28°
    +44°
    Ясно и безоблачно
    ВремяПогодаТемператураВлажностьДавлениеВетер, м/сВероятность осадков
    00:00Ясно и безоблачно+35°C12 %663 мм4.9 м/с2 %
    03:00Ясно и безоблачно+29°C18 %662 мм2.7 м/с2 %
    06:00Ясно и безоблачно+28°C24 %663 мм4.7 м/с2 %
    09:00Ясно и безоблачно+34°C15 %666 мм3.5 м/с2 %
    12:00Ясно и безоблачно+40°C11 %667 мм2.8 м/с2 %
    15:00Ясно и безоблачно+42°C8 %665 мм3.0 м/с2 %
    18:00Ясно и безоблачно+44°C7 %664 мм0.8 м/с2 %
    21:00Ясно и безоблачно+37°C8 %663 мм3.6 м/с2 %
  • 19июня
    Среда
    +25°
    +43°
    Ясно и безоблачно
    ВремяПогодаТемператураВлажностьДавлениеВетер, м/сВероятность осадков
    00:00Ясно и безоблачно+33°C32 %665 мм8.9 м/с2 %
    03:00Ясно и безоблачно+31°C40 %665 мм7.3 м/с2 %
    06:00Ясно и безоблачно+29°C47 %666 мм4.7 м/с2 %
    09:00Ясно и безоблачно+33°C38 %668 мм4.8 м/с2 %
    12:00Практически безоблачно+38°C23 %668 мм3.7 м/с2 %
    15:00Ясно и безоблачно+41°C17 %667 мм3.1 м/с2 %
    18:00Ясно и безоблачно+42°C13 %666 мм5.0 м/с2 %
    21:00Ясно и безоблачно+36°C26 %667 мм8.2 м/с2 %
Мы используем cookies
Соглашаюсь